createdAt,value
2022-11-15T00:00:11.818Z,101092.16
2022-11-15T00:03:19.841Z,101067.31
2022-11-15T00:06:26.100Z,101069.63
2022-11-15T00:09:32.124Z,101084.69
2022-11-15T00:12:38.375Z,101082.09
2022-11-15T00:15:44.487Z,101077.41
2022-11-15T00:18:51.134Z,101085.00
2022-11-15T00:21:57.322Z,101079.50
2022-11-15T00:25:04.617Z,101079.81
2022-11-15T00:28:10.610Z,101073.84
2022-11-15T00:31:16.957Z,101086.81
2022-11-15T00:34:23.028Z,101081.97
2022-11-15T00:37:28.872Z,101075.66
2022-11-15T00:40:35.147Z,101068.69
2022-11-15T00:43:43.360Z,101063.66
2022-11-15T00:46:49.332Z,101062.22
2022-11-15T00:49:55.695Z,101056.53
2022-11-15T00:53:02.042Z,101054.53
2022-11-15T00:56:08.585Z,101058.38
2022-11-15T00:59:17.048Z,101046.91
2022-11-15T01:02:23.319Z,101048.19
2022-11-15T01:05:31.716Z,101043.34
2022-11-15T01:08:42.974Z,101048.88
2022-11-15T01:11:48.967Z,101028.50
2022-11-15T01:14:55.398Z,101043.56
2022-11-15T01:18:01.834Z,101028.66
2022-11-15T01:21:17.912Z,101039.56
2022-11-15T01:24:23.877Z,101033.72
2022-11-15T01:27:29.787Z,101027.88
2022-11-15T01:30:37.359Z,101043.09
2022-11-15T01:33:44.004Z,101022.22
2022-11-15T01:36:50.459Z,101026.75
2022-11-15T01:39:56.665Z,101029.16
2022-11-15T01:43:23.433Z,101025.91
2022-11-15T01:46:38.544Z,101012.09
2022-11-15T01:50:00.681Z,101030.38
2022-11-15T01:53:11.890Z,101027.16
2022-11-15T01:56:25.761Z,101001.44
2022-11-15T01:59:31.984Z,101032.03
2022-11-15T02:02:39.205Z,101028.28
2022-11-15T02:05:45.807Z,101034.44
2022-11-15T02:08:52.872Z,101024.13
2022-11-15T02:12:00.341Z,101023.78
2022-11-15T02:15:08.745Z,101010.38
2022-11-15T02:18:29.298Z,101022.34
2022-11-15T02:21:44.936Z,101001.09
2022-11-15T02:25:27.504Z,101009.56
2022-11-15T02:28:39.442Z,101011.97
2022-11-15T02:31:51.328Z,101011.34
2022-11-15T02:35:09.250Z,101011.16
2022-11-15T02:38:29.281Z,101002.75
2022-11-15T02:41:48.511Z,100996.44
2022-11-15T02:44:58.538Z,100977.13
2022-11-15T02:48:07.392Z,100992.53
2022-11-15T02:51:14.896Z,101004.50
2022-11-15T02:54:24.512Z,100989.75
2022-11-15T02:57:53.906Z,101005.16
2022-11-15T03:01:23.373Z,101001.41
2022-11-15T03:04:50.210Z,100997.03
2022-11-15T03:08:02.771Z,101007.06
2022-11-15T03:11:10.891Z,100998.44
2022-11-15T03:14:22.506Z,100986.16
2022-11-15T03:17:42.448Z,100993.78
2022-11-15T03:20:50.395Z,100976.94
2022-11-15T03:23:58.398Z,100989.75
2022-11-15T03:27:08.086Z,100988.28
2022-11-15T03:30:15.027Z,100990.72
2022-11-15T03:33:23.183Z,100988.28
2022-11-15T03:36:32.648Z,100976.47
2022-11-15T03:39:38.644Z,100964.53
2022-11-15T03:42:50.086Z,100932.59
2022-11-15T03:46:12.845Z,100960.66
2022-11-15T03:49:29.274Z,100959.66
2022-11-15T03:52:36.131Z,100957.38
2022-11-15T03:55:42.465Z,100924.94
2022-11-15T03:58:48.760Z,100952.19
2022-11-15T04:02:13.371Z,100935.53
2022-11-15T04:05:19.789Z,100936.34
2022-11-15T04:08:25.897Z,100948.31
2022-11-15T04:11:32.297Z,100932.13
2022-11-15T04:14:38.396Z,100941.25
2022-11-15T04:17:48.080Z,100940.75
2022-11-15T04:21:12.721Z,100946.09
2022-11-15T04:24:18.858Z,100940.25
2022-11-15T04:27:25.334Z,100937.63
2022-11-15T04:30:31.596Z,100938.13
2022-11-15T04:33:37.844Z,100936.34
2022-11-15T04:37:02.394Z,100934.91
2022-11-15T04:40:09.276Z,100923.75
2022-11-15T04:43:15.459Z,100939.25
2022-11-15T04:46:24.856Z,100917.41
2022-11-15T04:49:31.230Z,100930.50
2022-11-15T04:52:37.516Z,100929.88
2022-11-15T04:55:47.254Z,100920.53
2022-11-15T04:58:53.756Z,100922.16
2022-11-15T05:02:00.250Z,100915.03
2022-11-15T05:05:06.833Z,100912.41
2022-11-15T05:08:14.878Z,100919.41
2022-11-15T05:11:24.308Z,100912.91
2022-11-15T05:14:30.575Z,100910.00
2022-11-15T05:17:36.876Z,100917.59
2022-11-15T05:20:43.272Z,100921.97
2022-11-15T05:23:49.713Z,100924.72
2022-11-15T05:26:56.072Z,100911.59
2022-11-15T05:30:02.009Z,100901.41
2022-11-15T05:33:08.332Z,100912.56
2022-11-15T05:36:26.850Z,100892.31
2022-11-15T05:39:35.571Z,100912.75
2022-11-15T05:42:41.791Z,100909.19
2022-11-15T05:45:48.530Z,100915.97
2022-11-15T05:48:56.959Z,100911.94
2022-11-15T05:52:08.227Z,100922.94
2022-11-15T05:55:15.091Z,100911.28
2022-11-15T05:58:21.895Z,100923.91
2022-11-15T06:01:29.425Z,100903.47
2022-11-15T06:04:35.337Z,100914.81
2022-11-15T06:07:41.296Z,100917.91
2022-11-15T06:10:47.678Z,100917.09
2022-11-15T06:13:55.909Z,100891.00
2022-11-15T06:17:05.974Z,100915.50
2022-11-15T06:20:14.519Z,100907.59
2022-11-15T06:23:20.869Z,100918.25
2022-11-15T06:26:26.960Z,100922.31
2022-11-15T06:29:33.190Z,100920.22
2022-11-15T06:32:39.494Z,100919.59
2022-11-15T06:35:45.646Z,100919.06
2022-11-15T06:38:52.184Z,100928.13
2022-11-15T06:41:58.637Z,100903.53
2022-11-15T06:45:05.167Z,100921.69
2022-11-15T06:48:11.566Z,100887.69
2022-11-15T06:51:17.460Z,100914.44
2022-11-15T06:54:23.729Z,100917.00
2022-11-15T06:57:29.981Z,100916.53
2022-11-15T07:00:40.744Z,100918.16
2022-11-15T07:03:58.230Z,100918.81
2022-11-15T07:07:11.686Z,100919.13
2022-11-15T07:10:26.494Z,100922.06
2022-11-15T07:13:36.741Z,100901.66
2022-11-15T07:16:42.769Z,100905.22
2022-11-15T07:19:49.138Z,100897.75
2022-11-15T07:23:06.336Z,100887.22
2022-11-15T07:26:12.652Z,100883.84
2022-11-15T07:29:18.768Z,100884.19
2022-11-15T07:32:25.000Z,100890.97
2022-11-15T07:35:31.371Z,100886.75
2022-11-15T07:38:42.417Z,100881.72
2022-11-15T07:42:11.813Z,100883.66
2022-11-15T07:45:17.924Z,100885.13
2022-11-15T07:48:24.283Z,100895.81
2022-11-15T07:51:30.707Z,100884.00
2022-11-15T07:54:37.005Z,100889.84
2022-11-15T07:57:43.506Z,100892.41
2022-11-15T08:00:49.560Z,100869.09
2022-11-15T08:03:58.052Z,100879.78
2022-11-15T08:07:04.384Z,100856.31
2022-11-15T08:10:10.666Z,100873.81
2022-11-15T08:13:16.626Z,100854.38
2022-11-15T08:16:22.730Z,100865.38
2022-11-15T08:19:28.839Z,100869.44
2022-11-15T08:22:35.195Z,100852.09
2022-11-15T08:25:41.336Z,100863.72
2022-11-15T08:28:47.249Z,100861.81
2022-11-15T08:31:56.339Z,100858.25
2022-11-15T08:35:02.231Z,100851.44
2022-11-15T08:38:08.650Z,100853.69
2022-11-15T08:41:37.048Z,100836.19
2022-11-15T08:44:43.332Z,100842.34
2022-11-15T08:47:53.969Z,100845.59
2022-11-15T08:51:00.666Z,100817.09
2022-11-15T08:54:06.769Z,100823.56
2022-11-15T08:57:13.682Z,100814.03
2022-11-15T09:00:21.134Z,100820.66
2022-11-15T09:03:27.248Z,100834.53
2022-11-15T09:06:33.296Z,100828.06
2022-11-15T09:09:39.599Z,100820.88
2022-11-15T09:12:46.453Z,100788.84
2022-11-15T09:15:52.616Z,100810.34
2022-11-15T09:18:58.928Z,100807.88
2022-11-15T09:22:09.062Z,100812.06
2022-11-15T09:25:15.372Z,100802.22
2022-11-15T09:31:45.549Z,100781.28
2022-11-15T09:34:51.762Z,100771.88
2022-11-15T09:37:59.504Z,100776.69
2022-11-15T09:41:14.214Z,100766.88
2022-11-15T09:44:42.235Z,100752.75
2022-11-15T09:48:04.637Z,100749.81
2022-11-15T09:51:36.930Z,100747.47
2022-11-15T09:57:48.724Z,100749.72
2022-11-15T10:00:50.220Z,100747.28
2022-11-15T10:03:43.237Z,100750.22
2022-11-15T10:06:36.211Z,100747.66
2022-11-15T10:09:31.591Z,100741.78
2022-11-15T10:12:19.604Z,100732.97
2022-11-15T10:15:16.143Z,100733.88
2022-11-15T10:18:30.325Z,100726.06
2022-11-15T10:21:47.192Z,100714.16
2022-11-15T10:24:39.088Z,100718.97
2022-11-15T10:27:26.779Z,100712.91
2022-11-15T10:30:19.609Z,100706.13
2022-11-15T10:33:37.672Z,100709.06
2022-11-15T10:36:27.909Z,100703.91
2022-11-15T10:42:28.186Z,100691.53
2022-11-15T10:42:29.913Z,100637.28
2022-11-15T10:45:44.331Z,100690.69
2022-11-15T10:48:32.333Z,100689.53
2022-11-15T10:51:29.460Z,100684.81
2022-11-15T10:54:42.711Z,100684.25
2022-11-15T10:57:34.337Z,100677.47
2022-11-15T11:00:22.117Z,100682.94
2022-11-15T11:03:36.815Z,100670.81
2022-11-15T11:06:24.542Z,100658.88
2022-11-15T11:09:23.022Z,100668.91
2022-11-15T11:12:13.869Z,100666.59
2022-11-15T11:15:10.735Z,100661.38
2022-11-15T11:18:23.830Z,100661.91
2022-11-15T11:21:16.483Z,100641.47
2022-11-15T11:24:09.886Z,100638.06
2022-11-15T11:27:32.770Z,100626.25
2022-11-15T11:30:26.233Z,100636.47
2022-11-15T11:33:26.154Z,100619.31
2022-11-15T11:36:37.336Z,100629.03
2022-11-15T11:39:34.459Z,100630.03
2022-11-15T11:42:37.077Z,100620.06
2022-11-15T11:45:51.783Z,100598.94
2022-11-15T11:49:02.416Z,100597.00
2022-11-15T11:52:23.211Z,100592.25
2022-11-15T11:55:20.489Z,100605.53
2022-11-15T11:58:35.465Z,100598.84
2022-11-15T12:01:32.023Z,100584.34
2022-11-15T12:04:30.953Z,100584.81
2022-11-15T12:07:31.670Z,100563.44
2022-11-15T12:10:31.136Z,100573.69
2022-11-15T12:13:25.755Z,100556.34
2022-11-15T12:16:23.828Z,100573.13
2022-11-15T12:19:11.507Z,100567.53
2022-11-15T12:22:10.184Z,100560.44
2022-11-15T12:25:00.847Z,100565.84
2022-11-15T12:27:51.848Z,100566.88
2022-11-15T12:30:49.410Z,100543.38
2022-11-15T12:33:43.899Z,100541.53
2022-11-15T12:36:37.415Z,100563.06
2022-11-15T12:40:07.830Z,100558.53
2022-11-15T12:43:26.469Z,100560.66
2022-11-15T12:46:21.752Z,100545.38
2022-11-15T12:49:25.512Z,100548.41
2022-11-15T12:52:13.270Z,100548.91
2022-11-15T12:55:03.208Z,100540.13
2022-11-15T12:57:51.029Z,100546.78
2022-11-15T13:00:39.393Z,100550.84
2022-11-15T13:03:29.037Z,100543.84
2022-11-15T13:06:40.052Z,100550.03
2022-11-15T13:09:33.703Z,100545.44
2022-11-15T13:12:27.561Z,100558.31
2022-11-15T13:15:15.866Z,100557.69
2022-11-15T13:18:40.555Z,100551.66
2022-11-15T13:21:46.565Z,100540.13
2022-11-15T13:24:34.309Z,100534.84
2022-11-15T13:27:22.259Z,100534.63
2022-11-15T13:30:22.026Z,100516.47
2022-11-15T13:33:15.886Z,100526.16
2022-11-15T13:36:30.115Z,100531.78
2022-11-15T13:39:35.052Z,100526.50
2022-11-15T13:42:29.949Z,100531.06
2022-11-15T13:45:20.017Z,100520.84
2022-11-15T13:48:09.585Z,100518.69
2022-11-15T13:50:59.063Z,100517.50
2022-11-15T13:53:52.261Z,100513.22
2022-11-15T13:56:44.296Z,100499.78
2022-11-15T13:59:35.950Z,100505.91
2022-11-15T14:02:31.309Z,100505.03
2022-11-15T14:05:22.450Z,100504.34
2022-11-15T14:08:22.904Z,100516.38
2022-11-15T14:11:19.564Z,100506.72
2022-11-15T14:14:10.744Z,100517.50
2022-11-15T14:17:02.182Z,100508.66
2022-11-15T14:19:49.914Z,100498.56
2022-11-15T14:22:39.000Z,100495.69
2022-11-15T14:25:29.025Z,100472.00
2022-11-15T14:28:31.967Z,100487.44
2022-11-15T14:31:22.155Z,100480.19
2022-11-15T14:34:10.247Z,100462.13
2022-11-15T14:36:58.001Z,100469.75
2022-11-15T14:39:45.641Z,100476.34
2022-11-15T14:42:33.670Z,100480.38
2022-11-15T14:45:23.088Z,100476.94
2022-11-15T14:48:13.127Z,100471.38
2022-11-15T14:51:00.731Z,100464.16
2022-11-15T14:53:51.854Z,100461.75
2022-11-15T14:56:43.879Z,100466.91
2022-11-15T14:59:31.596Z,100460.91
2022-11-15T15:02:25.389Z,100459.56
2022-11-15T15:05:22.072Z,100455.66
2022-11-15T15:08:13.147Z,100459.56
2022-11-15T15:11:00.942Z,100444.09
2022-11-15T15:13:48.895Z,100450.63
2022-11-15T15:16:39.429Z,100453.25
2022-11-15T15:19:27.150Z,100452.38
2022-11-15T15:22:18.133Z,100436.97
2022-11-15T15:25:30.032Z,100452.03
2022-11-15T15:28:17.693Z,100450.59
2022-11-15T15:31:05.508Z,100444.16
2022-11-15T15:33:53.172Z,100441.88
2022-11-15T15:36:41.007Z,100433.97
2022-11-15T15:39:28.712Z,100439.94
2022-11-15T15:42:16.376Z,100409.56
2022-11-15T15:45:04.296Z,100425.09
2022-11-15T15:47:57.304Z,100397.97
2022-11-15T15:50:46.325Z,100432.94
2022-11-15T15:53:34.283Z,100423.59
2022-11-15T15:56:21.984Z,100433.28
2022-11-15T15:59:09.680Z,100424.91
2022-11-15T16:01:57.410Z,100431.66
2022-11-15T16:04:45.141Z,100428.13
2022-11-15T16:07:33.236Z,100424.75
2022-11-15T16:10:20.908Z,100426.34
2022-11-15T16:13:08.743Z,100417.16
2022-11-15T16:15:56.542Z,100415.56
2022-11-15T16:18:44.288Z,100420.03
2022-11-15T16:21:32.123Z,100406.84
2022-11-15T16:24:24.359Z,100414.53
2022-11-15T16:27:19.356Z,100413.41
2022-11-15T16:30:16.335Z,100363.19
2022-11-15T16:33:04.313Z,100410.72
2022-11-15T16:35:54.758Z,100403.00
2022-11-15T16:38:42.399Z,100396.81
2022-11-15T16:41:34.653Z,100380.66
2022-11-15T16:44:45.189Z,100396.47
2022-11-15T16:47:32.881Z,100388.22
2022-11-15T16:50:29.935Z,100391.78
2022-11-15T16:53:17.914Z,100379.97
2022-11-15T16:56:31.757Z,100395.56
2022-11-15T16:59:21.165Z,100320.78
2022-11-15T17:02:20.901Z,100377.44
2022-11-15T17:05:11.745Z,100378.25
2022-11-15T17:08:02.330Z,100368.91
2022-11-15T17:10:53.570Z,100350.31
2022-11-15T17:13:41.319Z,100357.84
2022-11-15T17:16:29.162Z,100361.16
2022-11-15T17:19:19.191Z,100351.53
2022-11-15T17:22:06.976Z,100347.34
2022-11-15T17:24:54.642Z,100361.72
2022-11-15T17:27:42.583Z,100351.66
2022-11-15T17:30:30.214Z,100352.19
2022-11-15T17:33:17.936Z,100347.50
2022-11-15T17:36:07.716Z,100335.47
2022-11-15T17:38:59.304Z,100326.22
2022-11-15T17:41:50.703Z,100329.97
2022-11-15T17:44:40.908Z,100320.63
2022-11-15T17:47:28.577Z,100322.13
2022-11-15T17:50:18.009Z,100306.50
2022-11-15T17:53:05.862Z,100318.22
2022-11-15T17:55:54.124Z,100284.81
2022-11-15T17:58:42.226Z,100288.56
2022-11-15T18:01:32.367Z,100296.28
2022-11-15T18:04:20.310Z,100286.63
2022-11-15T18:07:08.111Z,100312.69
2022-11-15T18:09:58.041Z,100298.78
2022-11-15T18:12:45.814Z,100302.47
2022-11-15T18:15:33.521Z,100254.31
2022-11-15T18:18:21.281Z,100272.56
2022-11-15T18:21:13.554Z,100307.22
2022-11-15T18:24:02.403Z,100305.50
2022-11-15T18:26:53.061Z,100302.25
2022-11-15T18:29:46.911Z,100284.72
2022-11-15T18:32:34.653Z,100286.56
2022-11-15T18:35:22.295Z,100286.81
2022-11-15T18:38:09.971Z,100281.66
2022-11-15T18:40:59.805Z,100280.84
2022-11-15T18:43:51.594Z,100275.13
2022-11-15T18:46:40.312Z,100267.44
2022-11-15T18:49:28.444Z,100264.31
2022-11-15T18:52:20.125Z,100265.94
2022-11-15T18:55:09.684Z,100251.38
2022-11-15T18:58:00.038Z,100255.81
2022-11-15T19:00:50.866Z,100250.69
2022-11-15T19:03:41.635Z,100231.28
2022-11-15T19:06:32.945Z,100261.13
2022-11-15T19:09:21.027Z,100245.03
2022-11-15T19:12:12.189Z,100256.78
2022-11-15T19:14:59.931Z,100262.94
2022-11-15T19:17:50.820Z,100258.72
2022-11-15T19:20:38.684Z,100258.38
2022-11-15T19:23:26.424Z,100270.19
2022-11-15T19:26:16.103Z,100263.72
2022-11-15T19:29:07.931Z,100245.16
2022-11-15T19:31:55.648Z,100247.38
2022-11-15T19:34:43.381Z,100240.38
2022-11-15T19:37:31.223Z,100225.34
2022-11-15T19:40:18.880Z,100237.75
2022-11-15T19:43:07.104Z,100239.78
2022-11-15T19:46:01.926Z,100191.88
2022-11-15T19:48:51.357Z,100238.31
2022-11-15T19:51:41.830Z,100256.28
2022-11-15T19:54:29.559Z,100239.47
2022-11-15T19:57:17.441Z,100259.25
2022-11-15T20:00:07.528Z,100246.84
2022-11-15T20:02:55.432Z,100242.03
2022-11-15T20:05:43.808Z,100239.41
2022-11-15T20:08:33.058Z,100239.19
2022-11-15T20:11:21.714Z,100240.47
2022-11-15T20:14:11.805Z,100231.50
2022-11-15T20:16:59.683Z,100246.66
2022-11-15T20:19:47.378Z,100240.34
2022-11-15T20:22:35.059Z,100222.31
2022-11-15T20:25:22.733Z,100232.50
2022-11-15T20:28:13.646Z,100228.63
2022-11-15T20:31:01.916Z,100227.94
2022-11-15T20:33:49.527Z,100223.22
2022-11-15T20:36:37.264Z,100232.91
2022-11-15T20:39:25.415Z,100222.13
2022-11-15T20:42:13.206Z,100207.34
2022-11-15T20:45:02.048Z,100218.19
2022-11-15T20:47:49.820Z,100214.53
2022-11-15T20:50:44.608Z,100212.91
2022-11-15T20:53:32.688Z,100227.00
2022-11-15T20:56:22.337Z,100206.00
2022-11-15T20:59:09.991Z,100193.13
2022-11-15T21:01:57.849Z,100198.44
2022-11-15T21:04:45.712Z,100192.47
2022-11-15T21:07:33.547Z,100178.81
2022-11-15T21:10:39.761Z,100191.34
2022-11-15T21:13:27.574Z,100173.09
2022-11-15T21:16:17.079Z,100172.53
2022-11-15T21:19:05.900Z,100171.28
2022-11-15T21:21:53.761Z,100173.22
2022-11-15T21:24:41.703Z,100155.75
2022-11-15T21:27:29.282Z,100179.13
2022-11-15T21:30:17.314Z,100172.59
2022-11-15T21:33:04.950Z,100160.53
2022-11-15T21:35:52.774Z,100153.88
2022-11-15T21:38:40.475Z,100151.38
2022-11-15T21:41:28.293Z,100159.78
2022-11-15T21:44:16.133Z,100160.47
2022-11-15T21:47:03.836Z,100165.06
2022-11-15T21:49:51.659Z,100161.97
2022-11-15T21:52:39.293Z,100154.63
2022-11-15T21:55:27.102Z,100151.63
2022-11-15T21:58:14.814Z,100135.63
2022-11-15T22:01:21.492Z,100100.13
2022-11-15T22:04:09.930Z,100130.78
2022-11-15T22:06:57.767Z,100123.31
2022-11-15T22:09:45.437Z,100121.88
2022-11-15T22:12:33.138Z,100116.91
2022-11-15T22:15:21.088Z,100095.69
2022-11-15T22:18:15.294Z,100103.38
2022-11-15T22:21:05.664Z,100115.31
2022-11-15T22:23:53.506Z,100108.06
2022-11-15T22:26:41.317Z,100104.16
2022-11-15T22:29:29.078Z,100098.53
2022-11-15T22:32:16.736Z,100098.38
2022-11-15T22:35:04.685Z,100103.28
2022-11-15T22:37:53.008Z,100101.81
2022-11-15T22:40:49.167Z,100084.47
2022-11-15T22:43:37.289Z,100084.25
2022-11-15T22:46:25.070Z,100086.06
2022-11-15T22:49:12.768Z,100073.13
2022-11-15T22:52:00.565Z,100069.47
2022-11-15T22:54:48.226Z,100074.63
2022-11-15T22:57:38.494Z,100063.03
2022-11-15T23:00:26.315Z,100063.63
2022-11-15T23:03:14.146Z,100061.91
2022-11-15T23:06:06.887Z,100052.50
2022-11-15T23:08:54.691Z,100063.16
2022-11-15T23:12:00.793Z,100028.03
2022-11-15T23:14:48.467Z,100040.63
2022-11-15T23:17:36.200Z,100012.38
2022-11-15T23:20:42.489Z,100017.06
2022-11-15T23:23:30.891Z,100017.22
2022-11-15T23:26:18.667Z,100015.00
2022-11-15T23:29:08.606Z,100008.59
2022-11-15T23:32:32.803Z,100009.97
2022-11-15T23:35:20.669Z,100020.88
2022-11-15T23:38:08.364Z,100016.78
2022-11-15T23:40:56.083Z,100010.22
2022-11-15T23:43:43.942Z,100001.50
2022-11-15T23:46:31.784Z,99997.03
2022-11-15T23:49:19.738Z,99989.34
2022-11-15T23:52:07.406Z,99995.50
2022-11-15T23:54:55.080Z,99974.69
2022-11-15T23:57:42.770Z,99983.03
